Archiv-/Tagesdaten

--Timestamp---	Temp	Chill	HIndex	Humid	Dewpt	 Wind 	HiWind	WindDir	Rain 	Barom	Solar	 ET  	 UV 
--------------	----	-----	------	-----	-----	------	------	-------	-----	-----	-----	-----	----
20091102 00:00	2.4	0.6	2.4	94	1.5	6	10	112	0.0	1009.4	0	0.000	0.0
20091102 00:05	2.4	0.6	2.4	94	1.6	6	10	135	0.0	1009.2	0	0.000	0.0
20091102 00:10	2.4	0.6	2.4	94	1.6	6	11	112	0.0	1009.1	0	0.000	0.0
20091102 00:15	2.5	2.5	2.5	94	1.6	5	10	112	0.0	1009.0	0	0.000	0.0
20091102 00:20	2.5	2.5	2.5	94	1.6	3	8	135	0.0	1009.0	0	0.000	0.0
20091102 00:25	2.5	2.5	2.5	94	1.6	3	8	112	0.0	1008.9	0	0.000	0.0
20091102 00:30	2.5	2.5	2.5	94	1.6	5	8	112	0.0	1008.7	0	0.000	0.0
20091102 00:35	2.5	2.5	2.5	94	1.6	5	8	135	0.0	1008.6	0	0.000	0.0
20091102 00:40	2.4	2.4	2.4	94	1.6	3	8	112	0.0	1008.6	0	0.000	0.0
20091102 00:45	2.4	2.4	2.4	94	1.6	3	6	135	0.0	1008.5	0	0.000	0.0
20091102 00:50	2.4	2.4	2.4	94	1.5	3	8	112	0.0	1008.4	0	0.000	0.0
20091102 00:55	2.3	2.3	2.3	94	1.5	5	10	112	0.0	1008.2	0	0.000	0.0
20091102 01:00	2.3	2.3	2.3	94	1.5	5	10	112	0.0	1008.1	0	0.000	0.0
20091102 01:05	2.3	0.5	2.3	94	1.5	6	10	112	0.0	1007.8	0	0.000	0.0
20091102 01:10	2.3	2.3	2.3	94	1.5	5	8	112	0.0	1007.8	0	0.000	0.0
20091102 01:15	2.4	2.4	2.4	94	1.5	3	8	135	0.0	1007.6	0	0.000	0.0
20091102 01:20	2.4	2.4	2.4	94	1.5	3	6	112	0.0	1007.5	0	0.000	0.0
20091102 01:25	2.4	2.4	2.4	94	1.5	3	10	135	0.0	1007.5	0	0.000	0.0
20091102 01:30	2.4	2.4	2.4	94	1.5	5	8	135	0.0	1007.4	0	0.000	0.0
20091102 01:35	2.4	2.4	2.4	94	1.5	5	10	135	0.0	1007.3	0	0.000	0.0
20091102 01:40	2.3	2.3	2.3	94	1.5	5	8	112	0.0	1007.2	0	0.000	0.0
20091102 01:45	2.3	2.3	2.3	94	1.5	5	10	135	0.0	1007.2	0	0.000	0.0
20091102 01:50	2.3	0.0	2.3	94	1.5	8	11	112	0.0	1007.1	0	0.000	0.0
20091102 01:55	2.3	0.0	2.3	94	1.5	8	13	112	0.0	1006.9	0	0.000	0.0
20091102 02:00	2.4	0.6	2.4	94	1.5	6	14	112	0.0	1006.8	0	0.000	0.0
20091102 02:05	2.4	-0.4	2.4	94	1.5	10	14	112	0.0	1006.9	0	0.000	0.0
20091102 02:10	2.4	0.1	2.4	94	1.5	8	11	112	0.0	1006.7	0	0.000	0.0
20091102 02:15	2.4	-0.3	2.4	94	1.6	10	16	112	0.0	1006.6	0	0.000	0.0
20091102 02:20	2.4	0.6	2.4	94	1.6	6	11	135	0.0	1006.5	0	0.000	0.0
20091102 02:25	2.4	0.6	2.4	94	1.6	6	13	112	0.0	1006.4	0	0.000	0.0
20091102 02:30	2.5	0.7	2.5	94	1.6	6	10	112	0.0	1006.2	0	0.000	0.0
20091102 02:35	2.5	2.5	2.5	94	1.6	5	10	135	0.0	1006.2	0	0.000	0.0
20091102 02:40	2.6	0.8	2.6	94	1.7	6	10	135	0.0	1006.1	0	0.000	0.0
20091102 02:45	2.6	2.6	2.6	94	1.7	5	11	135	0.0	1006.0	0	0.000	0.0
20091102 02:50	2.6	2.6	2.6	94	1.7	5	11	112	0.0	1006.0	0	0.000	0.0
20091102 02:55	2.6	2.6	2.6	94	1.7	2	6	112	0.0	1005.9	0	0.000	0.0
20091102 03:00	2.7	2.7	2.7	93	1.6	3	6	112	0.0	1005.8	0	0.000	0.0
20091102 03:05	2.7	2.7	2.7	93	1.7	3	6	112	0.0	1006.1	0	0.000	0.0
20091102 03:10	2.8	2.8	2.8	93	1.8	3	6	112	0.0	1006.0	0	0.000	0.0
20091102 03:15	2.8	2.8	2.8	93	1.8	2	8	112	0.0	1006.0	0	0.000	0.0
20091102 03:20	2.8	2.8	2.8	93	1.8	0	3	112	0.0	1005.9	0	0.000	0.0
20091102 03:25	2.8	2.8	2.8	93	1.8	2	3	112	0.0	1005.9	0	0.000	0.0
20091102 03:30	2.8	2.8	2.8	93	1.8	0	3	112	0.0	1006.0	0	0.000	0.0
20091102 03:35	2.8	2.8	2.8	93	1.8	0	2	112	0.0	1006.2	0	0.000	0.0
20091102 03:40	2.8	2.8	2.8	93	1.8	2	3	112	0.0	1006.2	0	0.000	0.0
20091102 03:45	2.8	2.8	2.8	93	1.8	2	5	112	0.0	1006.2	0	0.000	0.0
20091102 03:50	2.8	2.8	2.8	93	1.8	2	5	112	0.0	1006.2	0	0.000	0.0
20091102 03:55	2.9	2.9	2.9	93	1.9	0	5	112	0.0	1006.2	0	0.000	0.0
20091102 04:00	2.9	2.9	2.9	93	1.9	2	5	112	0.0	1006.3	0	0.000	0.0
20091102 04:05	2.9	2.9	2.9	92	1.7	2	6	112	0.0	1006.7	0	0.000	0.0
20091102 04:10	2.9	2.9	2.9	93	1.9	2	5	112	0.0	1006.6	0	0.000	0.0
20091102 04:15	3.0	3.0	3.0	93	2.0	2	6	315	0.0	1006.6	0	0.000	0.0
20091102 04:20	3.0	3.0	3.0	93	2.0	5	10	338	0.0	1006.5	0	0.000	0.0
20091102 04:25	2.9	1.2	2.9	92	1.7	6	11	22	0.2	1006.5	0	0.000	0.0
20091102 04:30	2.7	2.7	2.7	92	1.6	5	8	22	0.0	1006.6	0	0.000	0.0
20091102 04:35	2.7	2.7	2.7	92	1.5	5	8	45	0.0	1006.5	0	0.000	0.0
20091102 04:40	2.6	2.6	2.6	92	1.4	3	8	45	0.0	1006.5	0	0.000	0.0
20091102 04:45	2.6	2.6	2.6	92	1.4	3	5	45	0.0	1006.4	0	0.000	0.0
20091102 04:50	2.6	2.6	2.6	93	1.6	3	6	45	0.0	1006.4	0	0.000	0.0
20091102 04:55	2.7	2.7	2.7	93	1.6	3	8	68	0.0	1006.5	0	0.000	0.0
20091102 05:00	2.7	2.7	2.7	93	1.6	5	19	68	0.0	1007.1	0	0.000	0.0
20091102 05:05	2.7	2.7	2.7	93	1.7	2	19	292	0.0	1006.9	0	0.000	0.0
20091102 05:10	2.7	2.7	2.7	93	1.7	2	5	292	0.0	1007.0	0	0.000	0.0
20091102 05:15	2.7	2.7	2.7	93	1.7	3	5	292	0.0	1007.1	0	0.000	0.0
20091102 05:20	2.8	2.8	2.8	93	1.8	3	6	292	0.0	1007.3	0	0.000	0.0
20091102 05:25	2.8	2.8	2.8	93	1.8	3	6	292	0.0	1007.3	0	0.000	0.0
20091102 05:30	2.7	2.7	2.7	93	1.7	2	5	292	0.0	1007.4	0	0.000	0.0
20091102 05:35	2.8	2.8	2.8	93	1.8	2	3	292	0.0	1007.5	0	0.000	0.0
20091102 05:40	2.8	2.8	2.8	93	1.8	5	6	292	0.0	1007.6	0	0.000	0.0
20091102 05:45	2.8	2.8	2.8	93	1.8	3	6	292	0.0	1007.5	0	0.000	0.0
20091102 05:50	2.9	2.9	2.9	93	1.9	3	6	292	0.2	1007.4	0	0.000	0.0
20091102 05:55	2.9	2.9	2.9	93	1.9	2	6	292	0.0	1007.5	0	0.000	0.0
20091102 06:00	2.9	2.9	2.9	93	1.9	3	5	292	0.2	1007.4	0	0.000	0.0
20091102 06:05	3.0	3.0	3.0	93	2.0	2	6	292	0.0	1007.6	0	0.000	0.0
20091102 06:10	3.1	3.1	3.1	93	2.0	0	2	292	0.0	1007.5	0	0.000	0.0
20091102 06:15	3.1	3.1	3.1	93	2.1	2	6	292	0.0	1007.5	0	0.000	0.0
20091102 06:20	3.2	3.2	3.2	93	2.1	2	5	292	0.0	1007.3	0	0.000	0.0
20091102 06:25	3.2	3.2	3.2	93	2.1	0	3	292	0.0	1007.4	0	0.000	0.0
20091102 06:30	3.2	3.2	3.2	93	2.2	0	2	292	0.0	1007.2	0	0.000	0.0
20091102 06:35	3.3	3.3	3.3	93	2.3	0	5	292	0.0	1007.3	0	0.000	0.0
20091102 06:40	3.3	3.3	3.3	93	2.3	0	3	292	0.0	1007.1	0	0.000	0.0
20091102 06:45	3.3	3.3	3.3	93	2.3	0	3	292	0.0	1007.1	0	0.000	0.0
20091102 06:50	3.3	3.3	3.3	93	2.3	2	6	292	0.0	1007.0	0	0.000	0.0
20091102 06:55	3.3	3.3	3.3	93	2.3	2	6	292	0.0	1006.9	0	0.000	0.0
20091102 07:00	3.4	3.4	3.4	93	2.4	3	8	292	0.2	1006.9	0	0.000	0.0
20091102 07:05	3.5	3.5	3.5	93	2.5	5	8	158	0.0	1006.9	0	0.000	0.0
20091102 07:10	3.6	3.6	3.6	94	2.7	3	8	158	0.0	1006.8	0	0.000	0.0
20091102 07:15	3.6	3.6	3.6	94	2.7	2	5	158	0.0	1006.7	5	0.000	0.0
20091102 07:20	3.7	3.7	3.7	94	2.8	3	8	158	0.0	1006.7	7	0.000	0.0
20091102 07:25	3.8	3.8	3.8	94	2.9	2	6	158	0.0	1006.7	7	0.000	0.0
20091102 07:30	3.8	3.8	3.8	94	3.0	2	6	158	0.2	1006.6	6	0.000	0.0
20091102 07:35	3.9	3.9	3.9	94	3.0	3	6	158	0.0	1006.6	7	0.000	0.0
20091102 07:40	3.9	3.9	3.9	94	3.1	3	8	158	0.0	1006.5	9	0.000	0.0
20091102 07:45	4.1	4.1	4.1	94	3.2	3	6	158	0.2	1006.6	14	0.000	0.0
20091102 07:50	4.1	4.1	4.1	94	3.2	5	8	158	0.0	1006.5	18	0.000	0.0
20091102 07:55	4.2	4.2	4.2	94	3.3	3	8	158	0.0	1006.5	18	0.000	0.0
20091102 08:00	4.3	4.3	4.3	94	3.5	2	6	158	0.2	1006.4	16	0.000	0.0
20091102 08:05	4.4	4.4	4.4	94	3.6	3	6	158	0.0	1006.5	17	0.000	0.0
20091102 08:10	4.5	4.5	4.5	94	3.6	3	6	158	0.0	1006.4	18	0.000	0.0
20091102 08:15	4.6	4.6	4.6	94	3.7	3	8	135	0.0	1006.4	20	0.000	0.0
20091102 08:20	4.7	4.7	4.7	94	3.8	5	10	135	0.0	1006.4	20	0.000	0.0
20091102 08:25	4.9	4.9	4.9	94	4.0	5	8	158	0.2	1006.2	20	0.000	0.0
20091102 08:30	5.0	5.0	5.0	94	4.1	3	10	158	0.0	1006.2	28	0.000	0.0
20091102 08:35	5.1	5.1	5.1	94	4.2	3	6	158	0.0	1006.0	32	0.000	0.0
20091102 08:40	5.3	5.3	5.3	94	4.4	3	6	158	0.0	1006.1	28	0.000	0.0
20091102 08:45	5.4	5.4	5.4	94	4.5	3	8	180	0.0	1006.0	24	0.000	0.0
20091102 08:50	5.6	5.6	5.6	94	4.7	2	5	180	0.0	1006.0	24	0.000	0.0
20091102 08:55	5.6	5.6	5.6	94	4.7	3	6	180	0.0	1006.0	25	0.000	0.0
20091102 09:00	5.7	5.7	5.7	94	4.8	2	8	180	0.0	1005.9	25	0.000	0.0
20091102 09:05	5.8	5.8	5.8	94	4.9	3	6	180	0.0	1005.8	26	0.000	0.0
20091102 09:10	5.9	5.9	5.9	94	5.1	3	6	180	0.0	1005.7	27	0.000	0.0
20091102 09:15	6.1	6.1	6.1	94	5.2	3	5	180	0.0	1005.7	31	0.000	0.0
20091102 09:20	6.2	6.2	6.2	94	5.3	3	6	202	0.0	1005.5	33	0.000	0.0
20091102 09:25	6.4	6.4	6.4	94	5.5	3	6	202	0.0	1005.4	34	0.000	0.0
20091102 09:30	6.6	6.6	6.6	95	5.9	5	6	202	0.0	1005.4	31	0.000	0.0
20091102 09:35	6.8	6.8	6.8	94	5.9	5	10	202	0.0	1005.4	32	0.000	0.0
20091102 09:40	6.9	6.9	6.9	94	6.0	5	8	158	0.0	1005.3	32	0.000	0.0
20091102 09:45	7.0	7.0	7.0	94	6.1	3	8	135	0.0	1005.3	33	0.000	0.0
20091102 09:50	6.9	6.9	6.9	94	6.0	3	8	180	0.0	1005.3	35	0.000	0.0
20091102 09:55	6.9	6.9	6.9	94	6.0	2	8	158	0.0	1005.4	41	0.000	0.0
20091102 10:00	6.9	6.9	6.9	94	6.0	3	6	135	0.0	1005.3	56	0.025	0.0
20091102 10:05	6.9	6.9	6.9	94	6.0	3	6	135	0.2	1005.3	67	0.000	0.0
20091102 10:10	7.0	7.0	7.0	94	6.1	3	6	158	0.0	1005.1	70	0.000	0.0
20091102 10:15	7.1	7.1	7.1	94	6.2	5	10	158	0.0	1005.2	68	0.000	0.0
20091102 10:20	7.2	7.2	7.2	94	6.3	5	10	158	0.0	1005.3	65	0.000	0.0
20091102 10:25	7.2	6.2	7.2	94	6.3	6	10	180	0.2	1005.3	64	0.000	0.0
20091102 10:30	7.2	6.2	7.2	93	6.2	6	11	180	0.0	1005.3	65	0.000	0.0
20091102 10:35	7.2	7.2	7.2	93	6.2	5	10	180	0.2	1005.3	59	0.000	0.0
20091102 10:40	7.3	6.2	7.3	93	6.2	6	11	180	0.0	1005.1	58	0.000	0.0
20091102 10:45	7.3	7.3	7.3	93	6.3	5	11	180	0.0	1005.1	80	0.000	0.5
20091102 10:50	7.4	7.4	7.4	93	6.4	3	10	158	0.0	1004.9	96	0.000	0.6
20091102 10:55	7.6	7.6	7.6	94	6.7	3	8	180	0.0	1004.8	96	0.000	0.6
20091102 11:00	7.8	7.8	7.8	93	6.7	3	8	180	0.0	1004.6	97	0.025	0.6
20091102 11:05	7.8	7.8	7.8	93	6.8	3	8	158	0.0	1004.6	74	0.000	0.3
20091102 11:10	7.9	7.9	7.9	93	6.8	3	10	158	0.0	1004.5	73	0.000	0.4
20091102 11:15	7.9	7.9	7.9	93	6.9	3	6	158	0.0	1004.4	67	0.000	0.3
20091102 11:20	7.9	7.9	7.9	93	6.9	2	6	158	0.0	1004.3	47	0.000	0.0
20091102 11:25	8.1	8.1	8.1	93	7.0	5	8	158	0.0	1004.2	57	0.000	0.0
20091102 11:30	8.1	8.1	8.1	92	6.8	3	6	158	0.0	1004.2	51	0.000	0.0
20091102 11:35	8.1	8.1	8.1	92	6.8	3	6	158	0.0	1004.2	48	0.000	0.0
20091102 11:40	8.1	8.1	8.1	92	6.8	2	8	135	0.0	1004.2	48	0.000	0.0
20091102 11:45	8.0	8.0	8.0	92	6.8	5	10	158	0.0	1004.2	49	0.000	0.0
20091102 11:50	7.9	7.9	7.9	92	6.7	3	8	180	0.0	1004.1	47	0.000	0.0
20091102 11:55	8.0	8.0	8.0	92	6.8	3	6	180	0.0	1004.0	41	0.000	0.0
20091102 12:00	8.0	8.0	8.0	92	6.8	5	8	180	0.2	1003.9	59	0.025	0.0
20091102 12:05	8.0	8.0	8.0	92	6.8	5	8	180	0.0	1003.8	68	0.000	0.0
20091102 12:10	8.1	8.1	8.1	92	6.8	5	8	180	0.0	1003.7	73	0.000	0.5
20091102 12:15	8.2	8.2	8.2	92	6.9	3	6	180	0.2	1003.6	85	0.000	0.5
20091102 12:20	8.2	8.2	8.2	92	7.0	3	5	180	0.0	1003.5	121	0.000	0.7
20091102 12:25	8.3	8.3	8.3	92	7.1	3	8	180	0.0	1003.4	102	0.000	0.6
20091102 12:30	8.3	8.3	8.3	92	7.1	2	5	135	0.0	1003.2	77	0.000	0.5
20091102 12:35	8.4	8.4	8.4	92	7.2	2	5	135	0.0	1003.2	64	0.000	0.2
20091102 12:40	8.5	8.5	8.5	93	7.4	3	6	135	0.0	1003.1	79	0.000	0.5
20091102 12:45	8.6	8.6	8.6	92	7.3	5	8	135	0.0	1002.9	76	0.000	0.5
20091102 12:50	8.6	8.6	8.6	92	7.3	3	8	135	0.0	1002.8	72	0.000	0.4
20091102 12:55	8.5	8.5	8.5	92	7.3	3	10	135	0.0	1002.8	70	0.000	0.2
20091102 13:00	8.5	8.5	8.5	92	7.3	3	10	135	0.0	1002.7	69	0.051	0.2
20091102 13:05	8.4	8.4	8.4	92	7.2	3	10	135	0.2	1002.7	64	0.000	0.0
20091102 13:10	8.4	8.4	8.4	92	7.2	5	8	158	0.0	1002.7	66	0.000	0.0
20091102 13:15	8.4	8.4	8.4	92	7.2	5	8	158	0.0	1002.6	67	0.000	0.0
20091102 13:20	8.4	8.4	8.4	92	7.2	3	10	158	0.0	1002.5	52	0.000	0.0
20091102 13:25	8.3	8.3	8.3	92	7.1	5	11	135	0.2	1002.4	56	0.000	0.0
20091102 13:30	8.3	8.3	8.3	92	7.1	5	10	158	0.0	1002.4	46	0.000	0.0
20091102 13:35	8.3	8.3	8.3	92	7.1	5	10	158	0.0	1002.3	39	0.000	0.0
20091102 13:40	8.3	8.3	8.3	92	7.1	5	10	158	0.0	1002.3	44	0.000	0.0
20091102 13:45	8.3	8.3	8.3	92	7.1	5	6	158	0.2	1002.2	48	0.000	0.0
20091102 13:50	8.3	8.3	8.3	92	7.1	3	8	158	0.0	1002.2	33	0.000	0.0
20091102 13:55	8.3	8.3	8.3	92	7.1	3	8	158	0.2	1002.2	30	0.000	0.0
20091102 14:00	8.3	8.3	8.3	92	7.1	5	8	180	0.0	1002.1	35	0.025	0.0
20091102 14:05	8.2	8.2	8.2	93	7.2	2	6	180	0.2	1001.9	27	0.000	0.0
20091102 14:10	8.2	8.2	8.2	93	7.2	3	8	180	0.2	1001.8	19	0.000	0.0
20091102 14:15	8.2	8.2	8.2	93	7.2	5	8	158	0.2	1001.9	16	0.000	0.0
20091102 14:20	8.2	8.2	8.2	93	7.1	3	8	158	0.2	1001.9	19	0.000	0.0
20091102 14:25	8.2	8.2	8.2	93	7.1	5	6	158	0.4	1001.9	16	0.000	0.0
20091102 14:30	8.2	8.2	8.2	93	7.1	5	10	180	0.2	1001.9	16	0.000	0.0
20091102 14:35	8.2	8.2	8.2	93	7.1	5	8	180	0.2	1001.8	30	0.000	0.0
20091102 14:40	8.2	8.2	8.2	93	7.1	5	10	180	0.0	1001.8	29	0.000	0.0
20091102 14:45	8.2	7.3	8.2	93	7.1	6	14	180	0.2	1001.8	33	0.000	0.0
20091102 14:50	8.2	7.3	8.2	93	7.2	6	11	180	0.2	1001.9	29	0.000	0.0
20091102 14:55	8.4	7.1	8.4	94	7.5	8	18	202	0.2	1001.8	24	0.000	0.0
20091102 15:00	8.7	7.2	8.7	94	7.8	10	19	248	0.0	1001.8	25	0.025	0.0
20091102 15:05	9.1	7.3	9.1	94	8.1	11	19	248	0.2	1001.7	21	0.000	0.0
20091102 15:10	9.2	7.5	9.2	94	8.3	11	24	248	0.0	1001.7	19	0.000	0.0
20091102 15:15	9.3	7.1	9.3	94	8.4	14	24	248	0.2	1001.8	18	0.000	0.0
20091102 15:20	9.3	6.7	9.3	93	8.2	18	29	248	0.0	1001.8	17	0.000	0.0
20091102 15:25	9.3	7.3	9.3	93	8.2	13	24	248	0.2	1001.8	15	0.000	0.0
20091102 15:30	9.3	7.3	9.3	93	8.2	13	21	248	0.2	1001.8	15	0.000	0.0
20091102 15:35	9.2	6.8	9.2	93	8.1	16	31	248	0.0	1001.8	15	0.000	0.0
20091102 15:40	9.2	7.0	9.2	92	8.0	14	26	248	0.2	1001.8	13	0.000	0.0
20091102 15:45	9.2	7.2	9.2	92	7.9	13	26	248	0.2	1001.8	12	0.000	0.0
20091102 15:50	9.1	6.6	9.1	92	7.8	16	27	248	0.2	1002.0	8	0.000	0.0
20091102 15:55	9.0	6.6	9.0	96	8.4	16	29	248	0.2	1001.9	5	0.000	0.0
20091102 16:00	8.9	6.1	8.9	92	7.7	19	32	248	0.2	1002.0	0	0.025	0.0
20091102 16:05	8.8	5.7	8.8	91	7.4	23	37	270	0.2	1002.2	0	0.000	0.0
20091102 16:10	8.6	5.1	8.6	90	7.1	26	43	270	0.2	1002.2	0	0.000	0.0
20091102 16:15	8.4	5.0	8.4	91	7.1	24	34	292	0.4	1002.3	0	0.000	0.0
20091102 16:20	8.2	4.7	8.2	90	6.6	24	39	292	0.2	1002.4	0	0.000	0.0
20091102 16:25	7.9	4.6	7.9	90	6.4	21	32	292	0.4	1002.6	0	0.000	0.0
20091102 16:30	7.8	5.1	7.8	91	6.5	16	29	292	0.2	1002.7	0	0.000	0.0
20091102 16:35	7.8	4.8	7.8	92	6.6	18	27	270	0.2	1002.9	0	0.000	0.0
20091102 16:40	7.7	5.0	7.7	92	6.5	16	27	270	0.4	1002.9	0	0.000	0.0
20091102 16:45	7.6	4.6	7.6	91	6.2	18	32	270	0.2	1003.0	0	0.000	0.0
20091102 16:50	7.3	4.7	7.3	91	6.0	14	27	270	0.2	1003.1	0	0.000	0.0
20091102 16:55	7.2	4.4	7.2	90	5.7	16	29	270	0.2	1003.1	0	0.000	0.0
20091102 17:00	7.1	4.4	7.1	90	5.5	14	29	270	0.2	1003.1	0	0.025	0.0
20091102 17:05	7.0	4.8	7.0	91	5.6	11	23	270	0.2	1003.1	0	0.000	0.0
20091102 17:10	6.9	5.4	6.9	91	5.6	8	16	270	0.0	1003.1	0	0.000	0.0
20091102 17:15	6.9	5.1	6.9	92	5.7	10	18	270	0.2	1003.0	0	0.000	0.0
20091102 17:20	6.9	5.1	6.9	92	5.7	10	21	270	0.0	1002.9	0	0.000	0.0
20091102 17:25	7.0	5.5	7.0	92	5.8	8	19	248	0.2	1003.1	0	0.000	0.0
20091102 17:30	7.0	5.1	7.0	92	5.8	10	19	270	0.0	1003.1	0	0.000	0.0
20091102 17:35	7.0	5.1	7.0	92	5.8	10	18	248	0.0	1003.1	0	0.000	0.0
20091102 17:40	7.0	4.8	7.0	92	5.8	11	21	248	0.2	1003.2	0	0.000	0.0
20091102 17:45	7.0	4.3	7.0	92	5.8	14	26	248	0.0	1003.2	0	0.000	0.0
20091102 17:50	6.9	4.8	6.9	92	5.7	11	23	248	0.0	1003.2	0	0.000	0.0
20091102 17:55	6.8	4.1	6.8	92	5.6	14	26	248	0.2	1003.4	0	0.000	0.0
20091102 18:00	6.7	4.0	6.7	91	5.4	14	26	270	0.2	1003.4	0	0.000	0.0
20091102 18:05	6.6	3.8	6.6	91	5.2	14	27	248	0.0	1003.3	0	0.000	0.0
20091102 18:10	6.5	3.7	6.5	91	5.1	14	24	248	0.0	1003.4	0	0.000	0.0
20091102 18:15	6.4	3.6	6.4	91	5.1	14	26	248	0.2	1003.4	0	0.000	0.0
20091102 18:20	6.3	3.0	6.3	91	5.0	18	27	248	0.0	1003.5	0	0.000	0.0
20091102 18:25	6.3	2.6	6.3	90	4.8	21	34	248	0.2	1003.6	0	0.000	0.0
20091102 18:30	6.2	2.8	6.2	91	4.8	18	31	270	0.2	1003.7	0	0.000	0.0
20091102 18:35	6.1	2.8	6.1	90	4.6	18	29	248	0.2	1003.9	0	0.000	0.0
20091102 18:40	6.1	2.9	6.1	91	4.7	16	29	270	0.0	1003.8	0	0.000	0.0
20091102 18:45	5.9	2.8	5.9	91	4.6	16	27	248	0.2	1003.9	0	0.000	0.0
20091102 18:50	5.9	2.5	5.9	91	4.5	18	29	248	0.2	1004.0	0	0.000	0.0
20091102 18:55	5.8	2.9	5.8	91	4.5	14	31	270	0.2	1004.0	0	0.000	0.0
20091102 19:00	5.8	3.4	5.8	91	4.4	11	21	248	0.2	1004.0	0	0.025	0.0
20091102 19:05	5.7	2.5	5.7	91	4.4	16	23	248	0.0	1003.9	0	0.000	0.0
20091102 19:10	5.7	2.4	5.7	91	4.3	16	26	248	0.0	1003.9	0	0.000	0.0
20091102 19:15	5.7	2.2	5.7	91	4.3	18	29	248	0.2	1004.0	0	0.000	0.0
20091102 19:20	5.6	2.6	5.6	91	4.3	14	27	248	0.2	1004.0	0	0.000	0.0
20091102 19:25	5.6	2.6	5.6	92	4.4	14	26	248	0.0	1003.9	0	0.000	0.0
20091102 19:30	5.6	2.5	5.6	92	4.4	14	27	248	0.2	1003.9	0	0.000	0.0
20091102 19:35	5.6	2.3	5.6	91	4.2	16	27	248	0.0	1003.9	0	0.000	0.0
20091102 19:40	5.5	3.0	5.5	91	4.1	11	26	248	0.2	1003.9	0	0.000	0.0
20091102 19:45	5.4	2.3	5.4	91	4.0	14	24	270	0.0	1003.9	0	0.000	0.0
20091102 19:50	5.3	2.2	5.3	91	3.9	14	24	248	0.2	1003.9	0	0.000	0.0
20091102 19:55	5.3	2.5	5.3	91	3.9	13	23	248	0.0	1004.0	0	0.000	0.0
20091102 20:00	5.3	2.5	5.3	91	3.9	13	23	248	0.0	1003.9	0	0.025	0.0
20091102 20:05	5.3	3.1	5.3	91	3.9	10	21	248	0.2	1003.8	0	0.000	0.0
20091102 20:10	5.3	2.5	5.3	91	3.9	13	24	270	0.0	1003.7	0	0.000	0.0
20091102 20:15	5.3	2.5	5.3	91	3.9	13	23	248	0.2	1003.8	0	0.000	0.0
20091102 20:20	5.3	2.2	5.3	91	3.9	14	24	248	0.0	1003.7	0	0.000	0.0
20091102 20:25	5.3	2.2	5.3	91	3.9	14	26	248	0.0	1003.8	0	0.000	0.0
20091102 20:30	5.2	1.7	5.2	91	3.9	18	34	248	0.0	1003.9	0	0.000	0.0
20091102 20:35	5.1	1.5	5.1	90	3.6	18	29	248	0.0	1003.9	0	0.000	0.0
20091102 20:40	5.1	2.0	5.1	90	3.6	14	27	248	0.0	1003.8	0	0.000	0.0
20091102 20:45	5.1	1.9	5.1	90	3.6	14	26	248	0.0	1003.8	0	0.000	0.0
20091102 20:50	5.0	1.4	5.0	90	3.5	18	37	248	0.0	1003.8	0	0.000	0.0
20091102 20:55	5.0	1.4	5.0	90	3.5	18	35	248	0.0	1003.8	0	0.000	0.0
20091102 21:00	4.9	1.3	4.9	91	3.6	18	31	248	0.0	1003.7	0	0.025	0.0
20091102 21:05	4.9	1.5	4.9	91	3.6	16	32	248	0.0	1003.7	0	0.000	0.0
20091102 21:10	4.9	0.8	4.9	91	3.5	21	35	248	0.2	1003.7	0	0.000	0.0
20091102 21:15	4.8	1.0	4.8	91	3.5	19	32	248	0.0	1003.8	0	0.000	0.0
20091102 21:20	4.8	1.0	4.8	91	3.5	19	31	270	0.0	1003.8	0	0.000	0.0
20091102 21:25	4.8	1.1	4.8	91	3.4	18	34	270	0.0	1003.8	0	0.000	0.0
20091102 21:30	4.8	1.3	4.8	91	3.4	16	29	248	0.0	1003.8	0	0.000	0.0
20091102 21:35	4.7	0.8	4.7	91	3.4	19	31	248	0.2	1003.8	0	0.000	0.0
20091102 21:40	4.7	1.0	4.7	91	3.3	18	29	248	0.0	1003.8	0	0.000	0.0
20091102 21:45	4.7	0.7	4.7	91	3.3	19	31	270	0.0	1003.9	0	0.000	0.0
20091102 21:50	4.7	1.2	4.7	91	3.3	16	29	248	0.2	1003.9	0	0.000	0.0
20091102 21:55	4.7	1.0	4.7	91	3.3	18	32	270	0.0	1004.0	0	0.000	0.0
20091102 22:00	4.7	1.4	4.7	91	3.3	14	24	270	0.2	1003.9	0	0.025	0.0
20091102 22:05	4.6	1.1	4.6	91	3.3	16	27	248	0.0	1003.9	0	0.000	0.0
20091102 22:10	4.6	1.1	4.6	91	3.3	16	35	248	0.2	1003.8	0	0.000	0.0
20091102 22:15	4.6	1.9	4.6	92	3.4	11	23	270	0.0	1003.9	0	0.000	0.0
20091102 22:20	4.6	1.6	4.6	92	3.4	13	26	270	0.0	1003.9	0	0.000	0.0
20091102 22:25	4.6	1.4	4.6	92	3.4	14	26	248	0.2	1003.8	0	0.000	0.0
20091102 22:30	4.6	1.1	4.6	92	3.4	16	24	248	0.0	1003.7	0	0.000	0.0
20091102 22:35	4.6	1.1	4.6	92	3.4	16	32	270	0.2	1003.7	0	0.000	0.0
20091102 22:40	4.6	0.2	4.6	91	3.2	23	39	270	0.2	1003.6	0	0.000	0.0
20091102 22:45	4.6	0.8	4.6	91	3.2	18	29	270	0.0	1003.6	0	0.000	0.0
20091102 22:50	4.6	0.8	4.6	91	3.2	18	35	270	0.0	1003.6	0	0.000	0.0
20091102 22:55	4.5	0.5	4.5	91	3.2	19	39	248	0.2	1003.6	0	0.000	0.0
20091102 23:00	4.4	0.7	4.4	91	3.1	18	27	270	0.0	1003.6	0	0.025	0.0
20091102 23:05	4.4	0.1	4.4	91	3.1	23	37	248	0.0	1003.6	0	0.000	0.0
20091102 23:10	4.4	0.7	4.4	91	3.1	18	34	270	0.2	1003.6	0	0.000	0.0
20091102 23:15	4.4	0.6	4.4	91	3.0	18	31	270	0.0	1003.7	0	0.000	0.0
20091102 23:20	4.3	0.3	4.3	91	3.0	19	37	270	0.0	1003.6	0	0.000	0.0
20091102 23:25	4.3	0.8	4.3	91	3.0	16	27	248	0.2	1003.5	0	0.000	0.0
20091102 23:30	4.3	0.5	4.3	91	3.0	18	34	270	0.0	1003.4	0	0.000	0.0
20091102 23:35	4.3	0.7	4.3	91	2.9	16	31	248	0.0	1003.5	0	0.000	0.0
20091102 23:40	4.3	1.2	4.3	91	2.9	13	24	248	0.2	1003.3	0	0.000	0.0
20091102 23:45	4.3	1.5	4.3	91	2.9	11	23	270	0.0	1003.3	0	0.000	0.0
20091102 23:50	4.3	1.2	4.3	91	2.9	13	24	248	0.0	1003.2	0	0.000	0.0
20091102 23:55	4.2	1.5	4.2	92	3.0	11	19	270	0.2	1003.1	0	0.000	0.0



Please note the license to use and transfer of this data:
http://creativecommons.org/licenses/by-nc-sa/3.0/deed.en

Bitte beachten sie die Lizenz zur Verwertung und Weitergabe der Daten:
http://creativecommons.org/licenses/by-nc-sa/3.0/deed.de

zurück zur Übersicht der Archivdaten (Monats und Tagesdaten)

Cookies helfen bei der Bereitstellung von Inhalten. Durch die Nutzung dieser Seiten erklärst du dich damit einverstanden, dass Cookies auf deinem Rechner gespeichert werden. Weitere Information